Time;durP1;ratioP1;P1;durP2;ratioP2;P2;SDS_P1;SDS_P2;PMS_P1;PMS_P2;Temp;Humidity;BMP_temperature;BMP_pressure;BME280_temperature;BME280_humidity;BME280_pressure;Samples;Min_cycle;Max_cycle;Signal;HPM_P1;HPM_P2
2023/01/16 00:04:35;;;;;;;203.10;32.50;;;;;;;-2.81;100.00;101532.00;104006;1280;616161;-91
2023/01/16 00:16:29;;;;;;;147.20;25.30;;;;;;;-2.31;100.00;101522.70;104583;1277;62143;-89
2023/01/16 00:18:55;;;;;;;149.80;25.00;;;;;;;-2.24;100.00;101520.42;104368;1280;60479;-91
2023/01/16 00:21:59;;;;;;;159.90;25.50;;;;;;;-2.15;100.00;101515.45;102918;1295;602594;-90
2023/01/16 00:29:40;;;;;;;139.70;29.60;;;;;;;-1.97;100.00;101512.95;103419;1289;600905;-90
2023/01/16 00:32:21;;;;;;;145.70;30.70;;;;;;;-1.93;100.00;101506.87;103437;1288;600822;-90
2023/01/16 00:38:21;;;;;;;115.30;24.40;;;;;;;-1.85;100.00;101504.52;103066;1289;599998;-88
2023/01/16 00:44:41;;;;;;;118.30;21.90;;;;;;;-1.71;100.00;101503.84;102915;1289;600229;-90
2023/01/16 00:47:07;;;;;;;119.60;24.20;;;;;;;-1.73;100.00;101496.80;103181;1294;60333;-89
2023/01/16 00:53:45;;;;;;;115.80;26.80;;;;;;;-1.65;100.00;101498.29;102999;1289;601240;-89
2023/01/16 00:56:11;;;;;;;96.70;22.80;;;;;;;-1.64;100.00;101502.77;106163;1287;58351;-89
2023/01/16 00:58:37;;;;;;;99.40;21.60;;;;;;;-1.63;100.00;101502.79;106192;1291;58126;-90
2023/01/16 01:01:03;;;;;;;96.30;20.90;;;;;;;-1.60;100.00;101501.08;105991;1291;58448;-89
2023/01/16 01:03:28;;;;;;;107.40;21.50;;;;;;;-1.60;100.00;101495.60;106029;1291;58492;-89
2023/01/16 01:09:16;;;;;;;104.00;21.20;;;;;;;-1.57;100.00;101494.65;98944;1290;60856;-89
2023/01/16 01:11:42;;;;;;;112.70;22.70;;;;;;;-1.56;100.00;101493.64;106137;1292;58569;-90
2023/01/16 01:14:07;;;;;;;116.00;24.90;;;;;;;-1.51;100.00;101493.60;106297;1291;58223;-89
2023/01/16 01:16:33;;;;;;;99.60;23.60;;;;;;;-1.43;100.00;101489.05;106067;1291;58031;-89
2023/01/16 01:18:59;;;;;;;98.90;22.90;;;;;;;-1.37;100.00;101489.00;106031;1290;58710;-89
2023/01/16 01:21:24;;;;;;;115.70;24.00;;;;;;;-1.30;100.00;101486.05;106151;1292;58283;-89
2023/01/16 01:23:50;;;;;;;105.10;25.50;;;;;;;-1.27;100.00;101478.86;106077;1291;62862;-92
2023/01/16 01:26:17;;;;;;;114.70;24.30;;;;;;;-1.25;100.00;101477.71;106241;1290;58230;-89
2023/01/16 01:28:43;;;;;;;109.10;25.20;;;;;;;-1.22;100.00;101477.05;106120;1290;58188;-88
2023/01/16 01:34:33;;;;;;;131.30;31.50;;;;;;;-1.21;100.00;101467.21;106322;1290;72264;-90
2023/01/16 01:36:58;;;;;;;139.60;28.50;;;;;;;-1.18;100.00;101460.10;106323;1285;61876;-89
2023/01/16 01:39:24;;;;;;;114.70;27.20;;;;;;;-1.24;100.00;101456.16;106702;1285;58144;-89
2023/01/16 01:41:50;;;;;;;124.90;28.10;;;;;;;-1.31;100.00;101450.16;106589;1284;58480;-89
2023/01/16 01:44:49;;;;;;;135.00;27.30;;;;;;;-1.33;100.00;101450.02;106505;1285;58248;-89
2023/01/16 01:47:17;;;;;;;129.80;27.60;;;;;;;-1.31;100.00;101442.27;106525;1285;73585;-90
2023/01/16 01:49:44;;;;;;;134.60;29.70;;;;;;;-1.29;100.00;101443.93;106561;1285;63096;-90
2023/01/16 01:52:10;;;;;;;126.60;30.40;;;;;;;-1.26;100.00;101444.66;106615;1284;58591;-89
2023/01/16 01:58:01;;;;;;;130.20;27.50;;;;;;;-1.30;100.00;101443.88;106858;1284;73391;-89
2023/01/16 02:00:27;;;;;;;133.90;27.90;;;;;;;-1.33;100.00;101444.21;106477;1285;72459;-89
2023/01/16 02:03:06;;;;;;;124.60;28.10;;;;;;;-1.38;100.00;101441.19;106533;1284;58550;-89
2023/01/16 02:05:44;;;;;;;126.80;27.20;;;;;;;-1.41;100.00;101439.19;106767;1285;61543;-90
2023/01/16 02:08:14;;;;;;;142.20;29.40;;;;;;;-1.41;100.00;101438.16;106577;1285;72977;-89
2023/01/16 02:10:50;;;;;;;138.10;30.40;;;;;;;-1.43;100.00;101435.22;106639;1284;74750;-89
2023/01/16 02:13:16;;;;;;;135.00;28.30;;;;;;;-1.49;100.00;101437.73;106562;1285;73329;-89
2023/01/16 02:19:15;;;;;;;137.50;31.50;;;;;;;-1.51;100.00;101437.90;106561;1285;58224;-89
2023/01/16 02:21:53;;;;;;;174.60;31.30;;;;;;;-1.54;100.00;101436.57;106270;1288;72938;-90
2023/01/16 02:24:26;;;;;;;142.80;29.50;;;;;;;-1.58;100.00;101434.60;106314;1288;72452;-89
2023/01/16 02:27:07;;;;;;;161.40;30.60;;;;;;;-1.58;100.00;101430.47;106204;1290;71424;-89
2023/01/16 02:33:11;;;;;;;136.90;27.70;;;;;;;-1.65;100.00;101434.88;106372;1287;59001;-89
2023/01/16 02:39:27;;;;;;;173.50;29.20;;;;;;;-1.63;100.00;101440.42;105915;1295;73421;-89
2023/01/16 02:42:07;;;;;;;135.10;26.40;;;;;;;-1.64;100.00;101435.21;105752;1295;73635;-90
2023/01/16 02:44:56;;;;;;;146.20;27.30;;;;;;;-1.66;100.00;101433.67;105741;1296;62852;-90
2023/01/16 02:47:27;;;;;;;135.10;27.10;;;;;;;-1.63;100.00;101429.48;105912;1294;60999;-89
2023/01/16 02:50:04;;;;;;;130.70;27.40;;;;;;;-1.62;100.00;101427.29;105888;1295;74153;-88
2023/01/16 02:52:40;;;;;;;138.80;28.00;;;;;;;-1.61;100.00;101429.96;105862;1294;73413;-89
2023/01/16 02:55:21;;;;;;;157.70;25.90;;;;;;;-1.58;100.00;101430.61;105809;1293;72714;-89
2023/01/16 02:57:51;;;;;;;127.80;25.10;;;;;;;-1.59;100.00;101428.79;105848;1294;62897;-89
2023/01/16 03:00:19;;;;;;;139.30;26.80;;;;;;;-1.57;100.00;101431.07;105792;1293;61116;-89
2023/01/16 03:02:45;;;;;;;146.20;28.00;;;;;;;-1.58;100.00;101429.32;105889;1293;72628;-89
2023/01/16 03:05:12;;;;;;;111.00;24.10;;;;;;;-1.60;100.00;101422.02;105988;1293;58193;-90
2023/01/16 03:07:49;;;;;;;131.30;25.70;;;;;;;-1.60;100.00;101420.55;105810;1294;58274;-90
2023/01/16 03:10:33;;;;;;;120.30;25.40;;;;;;;-1.61;100.00;101419.27;105976;1294;62451;-89
2023/01/16 03:13:10;;;;;;;122.90;25.10;;;;;;;-1.61;100.00;101422.90;105962;1293;60124;-90
2023/01/16 03:16:02;;;;;;;148.30;27.20;;;;;;;-1.58;100.00;101422.71;105959;1292;73095;-90
2023/01/16 03:18:49;;;;;;;150.10;29.00;;;;;;;-1.54;100.00;101425.23;105740;1297;73270;-89
2023/01/16 03:21:40;;;;;;;120.60;27.50;;;;;;;-1.51;100.00;101425.80;105724;1297;73649;-90
2023/01/16 03:24:19;;;;;;;154.90;29.30;;;;;;;-1.50;100.00;101427.10;105611;1297;62823;-90
2023/01/16 03:26:59;;;;;;;175.90;30.40;;;;;;;-1.50;100.00;101427.89;105808;1296;60044;-90
2023/01/16 03:29:51;;;;;;;134.00;27.20;;;;;;;-1.52;100.00;101426.30;105739;1296;73819;-89
2023/01/16 03:32:35;;;;;;;140.30;28.50;;;;;;;-1.51;100.00;101428.48;105819;1296;73420;-90
2023/01/16 03:35:13;;;;;;;140.10;25.70;;;;;;;-1.46;100.00;101428.50;105738;1298;73598;-90
2023/01/16 03:37:49;;;;;;;135.90;25.60;;;;;;;-1.45;100.00;101436.63;105809;1296;62838;-89
2023/01/16 03:40:22;;;;;;;139.20;26.10;;;;;;;-1.44;100.00;101436.34;105804;1296;60222;-90
2023/01/16 03:43:06;;;;;;;;;;;;;;;-1.41;100.00;101436.42;105672;1296;72942;-90
2023/01/16 03:49:01;;;;;;;135.60;24.00;;;;;;;-1.50;100.00;101435.73;106164;1292;71290;-88
2023/01/16 03:55:07;;;;;;;127.60;24.80;;;;;;;-1.47;100.00;101442.48;106332;1284;60067;-89
2023/01/16 03:57:46;;;;;;;155.60;27.10;;;;;;;-1.50;100.00;101444.36;106696;1285;73977;-91
2023/01/16 04:00:12;;;;;;;142.90;23.10;;;;;;;-1.51;100.00;101446.75;106745;1284;73498;-89
2023/01/16 04:06:10;;;;;;;152.80;25.10;;;;;;;-1.50;100.00;101450.07;106908;1284;60629;-90
2023/01/16 04:08:39;;;;;;;159.30;27.20;;;;;;;-1.49;100.00;101448.88;106512;1285;61270;-90
2023/01/16 04:14:28;;;;;;;148.80;27.70;;;;;;;-1.43;100.00;101448.16;106884;1284;72156;-90
2023/01/16 04:16:54;;;;;;;147.40;27.80;;;;;;;-1.42;100.00;101451.48;106907;1284;73315;-90
2023/01/16 04:19:22;;;;;;;144.70;28.40;;;;;;;-1.42;100.00;101449.16;106685;1286;58185;-89
2023/01/16 04:21:48;;;;;;;148.60;27.80;;;;;;;-1.43;100.00;101451.01;106626;1286;61407;-89
2023/01/16 04:24:16;;;;;;;145.40;26.60;;;;;;;-1.39;100.00;101452.21;106689;1284;58114;-90
2023/01/16 04:26:42;;;;;;;158.30;29.00;;;;;;;-1.41;100.00;101451.65;106671;1284;74388;-89
2023/01/16 04:29:07;;;;;;;148.80;28.70;;;;;;;-1.41;100.00;101450.86;106824;1286;58501;-89
2023/01/16 04:31:33;;;;;;;155.80;29.80;;;;;;;-1.41;100.00;101446.92;106680;1286;58213;-90
2023/01/16 04:37:20;;;;;;;162.80;27.20;;;;;;;-1.46;100.00;101446.91;106941;1285;72800;-89
2023/01/16 04:39:47;;;;;;;161.00;27.90;;;;;;;-1.48;100.00;101448.52;106731;1285;58069;-89
2023/01/16 04:42:13;;;;;;;160.20;26.40;;;;;;;-1.47;100.00;101445.16;106809;1286;58154;-89
2023/01/16 04:44:39;;;;;;;152.20;26.60;;;;;;;-1.50;100.00;101446.53;106504;1284;58242;-90
2023/01/16 08:26:00;;;;;;;149.80;35.00;;;;;;;-0.31;100.00;101410.77;103924;1282;613775;-86
2023/01/16 08:28:26;;;;;;;142.80;34.80;;;;;;;0.05;100.00;101405.37;103490;1280;291325;-88
2023/01/16 08:34:12;;;;;;;121.10;29.30;;;;;;;0.24;100.00;101397.67;102876;1295;603661;-89
2023/01/16 08:36:38;;;;;;;154.40;38.00;;;;;;;0.31;100.00;101399.73;103098;1297;60352;-89
2023/01/16 08:39:04;;;;;;;174.20;43.70;;;;;;;0.40;100.00;101390.29;106152;1290;58068;-89
2023/01/16 08:53:01;;;;;;;119.70;27.20;;;;;;;0.78;100.00;101378.89;106373;1288;60191;-88
2023/01/16 08:55:27;;;;;;;132.30;31.70;;;;;;;0.77;100.00;101371.73;106394;1288;58264;-89
2023/01/16 08:57:52;;;;;;;116.70;29.10;;;;;;;0.84;100.00;101370.96;106332;1288;58169;-90
2023/01/16 09:00:21;;;;;;;137.90;33.10;;;;;;;0.89;100.00;101370.86;106354;1289;58518;-89
2023/01/16 09:02:47;;;;;;;115.40;29.10;;;;;;;0.94;100.00;101372.28;105946;1294;59872;-88
2023/01/16 09:05:13;;;;;;;115.00;27.70;;;;;;;1.03;100.00;101366.27;105862;1296;58255;-89
2023/01/16 09:07:39;;;;;;;116.00;26.90;;;;;;;1.08;100.00;101364.94;106008;1291;58353;-89
2023/01/16 09:10:06;;;;;;;110.00;27.80;;;;;;;1.10;100.00;101359.02;106095;1296;58174;-90
2023/01/16 09:15:16;;;;;;;93.40;26.50;;;;;;;1.19;100.00;101361.04;106180;1292;60197;-89
2023/01/16 09:17:42;;;;;;;117.50;31.10;;;;;;;1.16;100.00;101359.85;106201;1291;58263;-90
2023/01/16 09:20:09;;;;;;;111.80;30.80;;;;;;;1.19;100.00;101359.41;106095;1291;58128;-89
2023/01/16 09:22:35;;;;;;;117.30;29.70;;;;;;;1.23;100.00;101357.72;106184;1292;58504;-88
2023/01/16 09:25:01;;;;;;;110.70;27.20;;;;;;;1.27;100.00;101353.67;106172;1292;58410;-89
2023/01/16 09:27:27;;;;;;;114.40;29.70;;;;;;;1.32;100.00;101358.46;106180;1291;58243;-90
2023/01/16 09:29:53;;;;;;;98.10;25.00;;;;;;;1.32;100.00;101357.58;106217;1292;58063;-90
2023/01/16 09:32:21;;;;;;;99.90;26.00;;;;;;;1.33;100.00;101356.34;106265;1291;58300;-89
2023/01/16 09:34:46;;;;;;;103.90;27.60;;;;;;;1.33;100.00;101351.64;106244;1289;58365;-89
2023/01/16 09:37:12;;;;;;;97.60;26.80;;;;;;;1.33;100.00;101347.02;106335;1289;58301;-89
2023/01/16 09:39:38;;;;;;;123.90;34.40;;;;;;;1.36;100.00;101345.42;106191;1288;58356;-88
2023/01/16 09:45:15;;;;;;;102.70;26.20;;;;;;;1.41;100.00;101335.66;106456;1288;72128;-90
2023/01/16 09:47:47;;;;;;;92.50;25.20;;;;;;;1.46;100.00;101337.79;106272;1288;72535;-89
2023/01/16 09:50:28;;;;;;;95.50;26.90;;;;;;;1.49;100.00;101336.77;106258;1289;61041;-90
2023/01/16 09:58:35;;;;;;;92.30;23.70;;;;;;;1.48;100.00;101330.54;106379;1289;73195;-88
2023/01/16 10:01:27;;;;;;;88.30;23.30;;;;;;;1.44;100.00;101324.80;106414;1290;73495;-90
2023/01/16 10:04:03;;;;;;;94.00;25.00;;;;;;;1.39;100.00;101322.20;105872;1296;61867;-90
2023/01/16 10:06:42;;;;;;;75.40;19.40;;;;;;;1.42;100.00;101317.79;105761;1295;60058;-89
2023/01/16 10:09:44;;;;;;;78.80;21.70;;;;;;;1.41;100.00;101311.95;105629;1295;74063;-89
2023/01/16 10:12:12;;;;;;;63.90;18.60;;;;;;;1.37;100.00;101310.03;105721;1296;73332;-91
2023/01/16 10:14:56;;;;;;;82.50;20.90;;;;;;;1.35;100.00;101308.89;105824;1295;72550;-89
2023/01/16 10:18:02;;;;;;;75.10;21.00;;;;;;;1.36;100.00;101302.88;105875;1296;62002;-92
2023/01/16 10:20:47;;;;;;;70.40;21.20;;;;;;;1.42;100.00;101300.62;105470;1300;60381;-92
2023/01/16 10:23:31;;;;;;;72.60;18.90;;;;;;;1.47;100.00;101304.11;105768;1298;73853;-93
2023/01/16 10:26:26;;;;;;;78.30;21.00;;;;;;;1.48;100.00;101306.10;105804;1297;74338;-92
2023/01/16 10:29:28;;;;;;;59.20;17.70;;;;;;;1.53;100.00;101307.23;105326;1303;73627;-92
2023/01/16 10:32:01;;;;;;;67.00;20.20;;;;;;;1.54;100.00;101300.39;105389;1303;60019;-94
2023/01/16 10:34:35;;;;;;;67.90;19.10;;;;;;;1.56;100.00;101300.30;105331;1303;60864;-94
2023/01/16 10:37:01;;;;;;;72.10;20.80;;;;;;;1.64;100.00;101300.48;105250;1303;73772;-93
2023/01/16 10:39:34;;;;;;;78.30;21.10;;;;;;;1.69;100.00;101299.45;105302;1303;58179;-92
2023/01/16 10:50:35;;;;;;;52.70;15.90;;;;;;;1.94;100.00;101299.20;105304;1303;72928;-92
2023/01/16 10:53:05;;;;;;;69.90;18.90;;;;;;;1.97;100.00;101294.58;105290;1303;58221;-94
2023/01/16 10:55:35;;;;;;;72.40;22.40;;;;;;;1.99;100.00;101293.83;105288;1303;72548;-95
2023/01/16 10:58:07;;;;;;;68.40;20.70;;;;;;;2.03;100.00;101292.36;105748;1297;61088;-93
2023/01/16 11:00:39;;;;;;;66.80;19.30;;;;;;;2.11;100.00;101292.83;105945;1296;60135;-92
2023/01/16 11:03:27;;;;;;;65.80;18.00;;;;;;;2.15;100.00;101290.02;105848;1296;72713;-93
2023/01/16 11:06:13;;;;;;;70.60;20.10;;;;;;;2.17;100.00;101287.86;106000;1292;73369;-93
2023/01/16 11:10:39;;;;;;;55.30;15.80;;;;;;;2.28;100.00;101284.96;102881;1294;601375;-83
2023/01/16 19:07:45;;;;;;;;;;;;;;;;;;;;;
2023/01/16 19:14:04;;;;;;;30.50;10.30;;;;;;;1.62;100.00;101198.04;103564;1290;73219;-80
2023/01/16 19:16:45;;;;;;;35.60;10.20;;;;;;;1.65;100.00;101199.30;102750;1296;73953;-80
2023/01/16 19:19:16;;;;;;;31.20;9.60;;;;;;;1.66;100.00;101200.59;102368;1299;61411;-79
2023/01/16 19:21:43;;;;;;;33.30;10.60;;;;;;;1.67;100.00;101203.58;102300;1299;60536;-79
2023/01/16 19:24:36;;;;;;;27.70;10.60;;;;;;;1.68;100.00;101204.52;102590;1301;73550;-79
2023/01/16 19:27:01;;;;;;;34.70;11.30;;;;;;;1.68;100.00;101199.72;101800;1309;74876;-79
2023/01/16 19:29:28;;;;;;;32.40;10.20;;;;;;;1.70;100.00;101187.95;102096;1308;60434;-79
2023/01/16 19:31:55;;;;;;;33.90;11.20;;;;;;;1.71;100.00;101187.66;101867;1315;60288;-80
2023/01/16 19:34:22;;;;;;;28.00;10.20;;;;;;;1.72;100.00;101189.05;102335;1308;60521;-79
2023/01/16 19:36:48;;;;;;;26.50;10.10;;;;;;;1.72;100.00;101187.95;101815;1311;74505;-79
2023/01/16 19:39:14;;;;;;;27.60;10.30;;;;;;;1.73;100.00;101189.91;101730;1308;60334;-79
2023/01/16 19:47:10;;;;;;;32.10;10.80;;;;;;;1.78;100.00;101190.71;101808;1303;60543;-79
2023/01/16 19:49:39;;;;;;;28.60;11.30;;;;;;;1.78;100.00;101193.86;102129;1319;73979;-79
2023/01/16 19:52:06;;;;;;;34.90;11.90;;;;;;;1.79;100.00;101198.73;103103;1295;74928;-78
2023/01/16 19:57:29;;;;;;;29.90;10.00;;;;;;;1.82;100.00;101180.38;103501;1286;600883;-79
2023/01/16 19:59:55;;;;;;;29.50;9.90;;;;;;;1.81;100.00;101181.15;103628;1286;60377;-79
2023/01/16 20:02:20;;;;;;;27.90;9.60;;;;;;;1.79;100.00;101180.58;103560;1286;61016;-79
2023/01/16 20:04:46;;;;;;;32.60;10.40;;;;;;;1.78;100.00;101178.73;103500;1291;60387;-80
2023/01/16 20:07:13;;;;;;;38.10;11.90;;;;;;;1.75;100.00;101174.29;103543;1286;72791;-79
2023/01/16 20:09:40;;;;;;;38.20;10.40;;;;;;;1.72;100.00;101171.02;103570;1286;60952;-79
2023/01/16 20:12:26;;;;;;;36.00;10.00;;;;;;;1.69;100.00;101165.23;103392;1282;185466;-80
2023/01/16 20:14:53;;;;;;;36.70;11.30;;;;;;;1.68;100.00;101167.31;103734;1283;72696;-80
2023/01/16 20:17:21;;;;;;;28.30;10.50;;;;;;;1.68;100.00;101162.16;103748;1283;73954;-80
2023/01/16 20:19:47;;;;;;;28.70;9.90;;;;;;;1.67;100.00;101162.55;103565;1285;74925;-80
2023/01/16 20:22:13;;;;;;;33.00;10.30;;;;;;;1.66;100.00;101167.20;103330;1290;60389;-80
2023/01/16 20:24:39;;;;;;;32.10;9.70;;;;;;;1.67;100.00;101169.24;103945;1283;60420;-80
2023/01/16 20:27:05;;;;;;;33.20;11.00;;;;;;;1.69;100.00;101167.80;103504;1282;60463;-80
2023/01/16 20:29:32;;;;;;;33.80;9.90;;;;;;;1.69;100.00;101163.84;103729;1283;60318;-80
2023/01/16 20:31:59;;;;;;;36.30;11.20;;;;;;;1.69;100.00;101164.20;103566;1282;60329;-80
2023/01/16 20:34:25;;;;;;;34.50;10.20;;;;;;;1.70;100.00;101158.41;103680;1283;60506;-80
2023/01/16 20:36:51;;;;;;;36.10;10.80;;;;;;;1.70;100.00;101148.73;103398;1291;60391;-81
2023/01/16 20:45:50;;;;;;;30.00;10.10;;;;;;;1.69;100.00;101147.58;103122;1294;60342;-80
2023/01/16 20:48:18;;;;;;;31.50;10.10;;;;;;;1.70;100.00;101147.65;103173;1289;61436;-80
2023/01/16 20:50:44;;;;;;;31.50;11.20;;;;;;;1.71;100.00;101148.02;103163;1291;73726;-80
2023/01/16 20:53:10;;;;;;;35.60;12.20;;;;;;;1.72;100.00;101156.59;103219;1294;60534;-80
2023/01/16 20:55:35;;;;;;;33.70;10.90;;;;;;;1.73;100.00;101158.55;102694;1294;193256;-80
2023/01/16 20:58:01;;;;;;;29.00;10.30;;;;;;;1.75;100.00;101156.79;103479;1291;60494;-79
2023/01/16 21:00:27;;;;;;;33.60;10.30;;;;;;;1.75;100.00;101160.67;103436;1288;60398;-81
2023/01/16 21:02:54;;;;;;;33.90;10.00;;;;;;;1.75;100.00;101158.80;103207;1290;60524;-81
2023/01/16 21:05:19;;;;;;;28.70;9.80;;;;;;;1.79;100.00;101159.77;103162;1295;73528;-81
2023/01/16 21:07:45;;;;;;;28.90;9.90;;;;;;;1.84;100.00;101162.57;102887;1294;60366;-81
2023/01/16 21:10:11;;;;;;;29.60;9.60;;;;;;;1.86;100.00;101164.97;103187;1291;60383;-80
2023/01/16 21:15:20;;;;;;;34.20;11.20;;;;;;;1.93;100.00;101169.07;103319;1288;72131;-80
2023/01/16 21:23:14;;;;;;;31.30;9.70;;;;;;;2.02;100.00;101160.14;102919;1293;61759;-80
2023/01/16 21:25:41;;;;;;;28.70;10.50;;;;;;;2.03;100.00;101164.61;102738;1295;60521;-79
2023/01/16 21:28:08;;;;;;;35.90;12.80;;;;;;;2.03;100.00;101167.07;102938;1296;60526;-79
2023/01/16 21:30:34;;;;;;;30.60;11.30;;;;;;;2.07;100.00;101167.06;102836;1298;74128;-80
2023/01/16 21:32:59;;;;;;;30.50;10.30;;;;;;;2.08;100.00;101158.92;103010;1295;60397;-80
2023/01/16 21:35:25;;;;;;;27.10;9.20;;;;;;;2.09;100.00;101158.45;102946;1297;60591;-80
2023/01/16 21:37:51;;;;;;;29.20;9.10;;;;;;;2.08;100.00;101160.65;102823;1293;60429;-80
2023/01/16 21:40:18;;;;;;;37.40;12.00;;;;;;;2.10;100.00;101155.52;102963;1291;60410;-79
2023/01/16 21:48:17;;;;;;;37.90;12.60;;;;;;;2.12;100.00;101163.73;103050;1291;72825;-80
2023/01/16 21:50:44;;;;;;;33.60;12.10;;;;;;;2.13;100.00;101165.08;103178;1290;73899;-80
2023/01/16 21:53:16;;;;;;;41.20;12.70;;;;;;;2.13;100.00;101166.76;103476;1287;73556;-80
2023/01/16 21:55:43;;;;;;;38.60;13.40;;;;;;;2.15;100.00;101170.98;103438;1291;61681;-79
2023/01/16 21:58:09;;;;;;;36.20;11.10;;;;;;;2.16;100.00;101168.90;103176;1288;60209;-80
2023/01/16 22:00:36;;;;;;;36.80;12.10;;;;;;;2.17;100.00;101166.86;103297;1288;61959;-80
2023/01/16 22:03:05;;;;;;;35.00;11.00;;;;;;;2.15;100.00;101165.30;103383;1292;60382;-80
2023/01/16 22:05:31;;;;;;;35.00;12.10;;;;;;;2.17;100.00;101165.92;103113;1287;74296;-80
2023/01/16 22:07:57;;;;;;;32.30;10.90;;;;;;;2.18;100.00;101165.48;103234;1291;60404;-80
2023/01/16 22:10:23;;;;;;;40.90;10.70;;;;;;;2.18;100.00;101163.89;103408;1290;60385;-80
